Home   Weather   Austria   Bischofshofen   Past weeks
Flag for Austria

Past Weather in Bischofshofen, Salzburg, Austria — Yesterday and Last 2 Weeks

Currently: 66 °F. Light rain. Partly sunny. (Weather station: Salzburg-Flughafen, Austria). See more current weather

Past Weather in Bischofshofen — Graph

°F

Bischofshofen Temperature Yesterday

Maximum temperature yesterday: 86 °F (at 3:20 pm)
Minimum temperature yesterday: 63 °F (at 4:20 am)
Average temperature yesterday: 74 °F

High & Low Weather Summary for the Past Weeks

 TemperatureHumidityPressure
High88 °F (Jul 15, 2:20 pm)100% (Jul 9, 3:50 am)30.24 "Hg (Jul 9, 3:50 am)
Low57 °F (Jul 9, 3:50 am)38% (Jul 15, 3:50 pm)29.77 "Hg (Jul 21, 4:20 pm)
Average71 °F76%30.02 "Hg
* Reported Jul 7 9:20 am — Jul 22 9:20 am, Bischofshofen. Weather by CustomWeather, © 2024

Note: Actual official high and low records may vary slightly from our data, if they occured in-between our weather recording intervals... More about our weather records

Bischofshofen Weather History for the Previous 24 Hours

Scroll right to see more
 ConditionsComfort  
Time TempWeatherWind HumidityBarometerVisibility
9:20 am
Mon, Jul 22
64 °FRain showers. Broken clouds.5 mph94%30.04 "Hg5 mi
8:50 am66 °FRain showers. Partly sunny.6 mph83%30.04 "HgN/A
8:20 am66 °FPartly sunny.10 mph83%30.04 "HgN/A
7:50 am66 °FPartly sunny.9 mph83%30.04 "HgN/A
7:20 am66 °FPartly sunny.6 mph83%30.01 "HgN/A
6:50 am64 °FPartly sunny.7 mph88%30.01 "HgN/A
6:20 am64 °FBroken clouds.6 mph88%30.01 "HgN/A
5:50 am63 °FScattered clouds.6 mph88%30.01 "HgN/A
5:20 am64 °FPassing clouds.2 mph83%30.01 "HgN/A
4:50 am64 °FClear.7 mph83%29.98 "HgN/A
4:20 am64 °FPassing clouds.7 mph83%29.98 "HgN/A
3:20 am64 °FClear.7 mph83%29.98 "HgN/A
2:50 am64 °FClear.6 mph83%29.98 "HgN/A
2:20 am64 °FClear.2 mph83%29.98 "HgN/A
1:50 am66 °FClear.6 mph78%29.98 "HgN/A
1:20 am66 °FClear.8 mph78%29.98 "HgN/A
12:50 am66 °FClear.9 mph78%29.95 "HgN/A
12:20 am66 °FClear.10 mph78%29.95 "HgN/A
11:50 pm
Sun, Jul 21
68 °FPassing clouds.12 mph73%29.92 "HgN/A
11:20 pm68 °FPassing clouds.13 mph73%29.92 "HgN/A
10:20 pm70 °FClear.10 mph64%29.92 "HgN/A
9:50 pm72 °FPassing clouds.6 mph57%29.92 "HgN/A
9:20 pm73 °FPassing clouds.13 mph53%29.89 "HgN/A
8:50 pm73 °FScattered clouds.22 mph50%29.89 "HgN/A
8:20 pm77 °FPartly sunny.21 mph47%29.86 "HgN/A
7:50 pm79 °FPassing clouds.8 mph54%29.83 "HgN/A
7:20 pm81 °FSunny.5 mph51%29.80 "Hg10 mi
6:50 pm84 °FSunny.6 mph40%29.80 "Hg10 mi
6:20 pm84 °FClear.7 mph43%29.80 "HgN/A
5:50 pm86 °FClear.6 mph40%29.77 "HgN/A
5:20 pm86 °FClear.7 mph43%29.80 "HgN/A
4:50 pm86 °FClear.7 mph43%29.77 "HgN/A
4:20 pm86 °FClear.7 mph46%29.77 "HgN/A
3:50 pm86 °FClear.5 mph43%29.80 "HgN/A
3:20 pm86 °FClear.6 mph40%29.80 "HgN/A
2:50 pm84 °FClear.7 mph45%29.80 "HgN/A
2:20 pm84 °FClear.7 mph48%29.80 "HgN/A
1:50 pm84 °FClear.5 mph45%29.83 "HgN/A
1:20 pm84 °FClear.7 mph48%29.83 "HgN/A
12:50 pm82 °FClear.3 mph51%29.83 "HgN/A
12:20 pm82 °FClear.3 mph55%29.83 "HgN/A
11:50 am82 °FClear.5 mph48%29.83 "HgN/A
11:20 am79 °FClear.6 mph54%29.83 "HgN/A
Weather by CustomWeather, © 2024

See weather overview